sensor_id;sensor_type;location;lat;lon;timestamp;P1;durP1;ratioP1;P2;durP2;ratioP2
21326;SDS011;10822;51.532;6.770;2022-12-07T00:01:43;15.70;;;11.00;;
21326;SDS011;10822;51.532;6.770;2022-12-07T00:04:11;14.95;;;10.95;;
21326;SDS011;10822;51.532;6.770;2022-12-07T00:06:38;16.50;;;11.15;;
21326;SDS011;10822;51.532;6.770;2022-12-07T00:09:06;14.07;;;10.57;;
21326;SDS011;10822;51.532;6.770;2022-12-07T00:11:32;15.63;;;11.70;;
21326;SDS011;10822;51.532;6.770;2022-12-07T00:13:59;15.65;;;10.38;;
21326;SDS011;10822;51.532;6.770;2022-12-07T00:16:27;16.20;;;11.93;;
21326;SDS011;10822;51.532;6.770;2022-12-07T00:18:53;16.67;;;12.25;;
21326;SDS011;10822;51.532;6.770;2022-12-07T00:21:20;16.13;;;11.82;;
21326;SDS011;10822;51.532;6.770;2022-12-07T00:23:47;16.05;;;12.13;;
21326;SDS011;10822;51.532;6.770;2022-12-07T00:26:15;18.65;;;12.43;;
21326;SDS011;10822;51.532;6.770;2022-12-07T00:28:41;20.30;;;12.57;;
21326;SDS011;10822;51.532;6.770;2022-12-07T00:31:11;16.77;;;11.80;;
21326;SDS011;10822;51.532;6.770;2022-12-07T00:33:37;16.40;;;12.55;;
21326;SDS011;10822;51.532;6.770;2022-12-07T00:36:04;17.48;;;12.82;;
21326;SDS011;10822;51.532;6.770;2022-12-07T00:38:31;16.75;;;12.20;;
21326;SDS011;10822;51.532;6.770;2022-12-07T00:41:01;17.58;;;12.90;;
21326;SDS011;10822;51.532;6.770;2022-12-07T00:43:27;17.80;;;12.15;;
21326;SDS011;10822;51.532;6.770;2022-12-07T00:45:54;17.63;;;12.45;;
21326;SDS011;10822;51.532;6.770;2022-12-07T00:48:20;18.40;;;11.90;;
21326;SDS011;10822;51.532;6.770;2022-12-07T00:50:46;18.70;;;12.43;;
21326;SDS011;10822;51.532;6.770;2022-12-07T00:53:12;19.45;;;13.80;;
21326;SDS011;10822;51.532;6.770;2022-12-07T00:55:38;21.35;;;13.95;;
21326;SDS011;10822;51.532;6.770;2022-12-07T00:58:04;20.58;;;13.82;;
21326;SDS011;10822;51.532;6.770;2022-12-07T01:00:30;16.67;;;12.63;;
21326;SDS011;10822;51.532;6.770;2022-12-07T01:02:56;19.25;;;14.00;;
21326;SDS011;10822;51.532;6.770;2022-12-07T01:05:22;19.95;;;13.85;;
21326;SDS011;10822;51.532;6.770;2022-12-07T01:07:48;22.45;;;14.40;;
21326;SDS011;10822;51.532;6.770;2022-12-07T01:10:14;19.50;;;13.23;;
21326;SDS011;10822;51.532;6.770;2022-12-07T01:12:40;19.27;;;13.30;;
21326;SDS011;10822;51.532;6.770;2022-12-07T01:15:06;20.20;;;13.60;;
21326;SDS011;10822;51.532;6.770;2022-12-07T01:17:33;19.50;;;13.75;;
21326;SDS011;10822;51.532;6.770;2022-12-07T01:19:59;20.17;;;13.23;;
21326;SDS011;10822;51.532;6.770;2022-12-07T01:22:25;17.42;;;12.32;;
21326;SDS011;10822;51.532;6.770;2022-12-07T01:24:51;19.10;;;13.88;;
21326;SDS011;10822;51.532;6.770;2022-12-07T01:27:17;17.67;;;13.38;;
21326;SDS011;10822;51.532;6.770;2022-12-07T01:29:43;16.67;;;13.18;;
21326;SDS011;10822;51.532;6.770;2022-12-07T01:32:09;19.65;;;13.00;;
21326;SDS011;10822;51.532;6.770;2022-12-07T01:34:36;19.60;;;14.38;;
21326;SDS011;10822;51.532;6.770;2022-12-07T01:37:01;18.75;;;14.10;;
21326;SDS011;10822;51.532;6.770;2022-12-07T01:39:27;19.80;;;14.05;;
21326;SDS011;10822;51.532;6.770;2022-12-07T01:41:54;17.05;;;12.60;;
21326;SDS011;10822;51.532;6.770;2022-12-07T01:46:53;20.42;;;13.95;;
21326;SDS011;10822;51.532;6.770;2022-12-07T01:51:55;20.15;;;13.88;;
21326;SDS011;10822;51.532;6.770;2022-12-07T01:54:22;19.77;;;13.63;;
21326;SDS011;10822;51.532;6.770;2022-12-07T01:56:50;19.98;;;13.18;;
21326;SDS011;10822;51.532;6.770;2022-12-07T01:59:17;17.80;;;13.82;;
21326;SDS011;10822;51.532;6.770;2022-12-07T02:01:44;16.95;;;12.48;;
21326;SDS011;10822;51.532;6.770;2022-12-07T02:04:10;19.35;;;13.70;;
21326;SDS011;10822;51.532;6.770;2022-12-07T02:06:36;20.02;;;12.88;;
21326;SDS011;10822;51.532;6.770;2022-12-07T02:09:03;18.83;;;13.63;;
21326;SDS011;10822;51.532;6.770;2022-12-07T02:11:29;18.60;;;13.52;;
21326;SDS011;10822;51.532;6.770;2022-12-07T02:13:55;20.77;;;13.85;;
21326;SDS011;10822;51.532;6.770;2022-12-07T02:16:24;20.05;;;14.40;;
21326;SDS011;10822;51.532;6.770;2022-12-07T02:21:33;19.55;;;12.50;;
21326;SDS011;10822;51.532;6.770;2022-12-07T02:30:12;23.08;;;12.77;;
21326;SDS011;10822;51.532;6.770;2022-12-07T02:34:55;17.02;;;13.07;;
21326;SDS011;10822;51.532;6.770;2022-12-07T02:37:30;18.48;;;13.10;;
21326;SDS011;10822;51.532;6.770;2022-12-07T02:39:59;17.80;;;12.75;;
21326;SDS011;10822;51.532;6.770;2022-12-07T02:42:28;18.60;;;12.50;;
21326;SDS011;10822;51.532;6.770;2022-12-07T02:44:56;19.98;;;13.23;;
21326;SDS011;10822;51.532;6.770;2022-12-07T02:47:22;21.00;;;13.40;;
21326;SDS011;10822;51.532;6.770;2022-12-07T02:49:49;17.08;;;13.23;;
21326;SDS011;10822;51.532;6.770;2022-12-07T02:52:16;18.27;;;13.23;;
21326;SDS011;10822;51.532;6.770;2022-12-07T02:54:42;18.70;;;13.55;;
21326;SDS011;10822;51.532;6.770;2022-12-07T02:57:21;21.23;;;13.88;;
21326;SDS011;10822;51.532;6.770;2022-12-07T03:02:25;19.42;;;13.85;;
21326;SDS011;10822;51.532;6.770;2022-12-07T03:10:10;21.88;;;14.98;;
21326;SDS011;10822;51.532;6.770;2022-12-07T03:12:44;22.50;;;14.60;;
21326;SDS011;10822;51.532;6.770;2022-12-07T03:15:16;21.45;;;13.98;;
21326;SDS011;10822;51.532;6.770;2022-12-07T03:17:43;20.48;;;14.88;;
21326;SDS011;10822;51.532;6.770;2022-12-07T03:20:11;24.02;;;15.73;;
21326;SDS011;10822;51.532;6.770;2022-12-07T03:22:39;19.45;;;14.10;;
21326;SDS011;10822;51.532;6.770;2022-12-07T03:25:09;20.65;;;13.88;;
21326;SDS011;10822;51.532;6.770;2022-12-07T03:30:03;19.10;;;12.98;;
21326;SDS011;10822;51.532;6.770;2022-12-07T03:35:02;20.95;;;14.68;;
21326;SDS011;10822;51.532;6.770;2022-12-07T03:37:32;23.80;;;15.50;;
21326;SDS011;10822;51.532;6.770;2022-12-07T03:42:43;53.28;;;32.22;;
21326;SDS011;10822;51.532;6.770;2022-12-07T03:45:09;45.92;;;26.38;;
21326;SDS011;10822;51.532;6.770;2022-12-07T03:50:13;22.13;;;15.30;;
21326;SDS011;10822;51.532;6.770;2022-12-07T03:52:42;24.15;;;16.38;;
21326;SDS011;10822;51.532;6.770;2022-12-07T03:55:15;26.02;;;16.38;;
21326;SDS011;10822;51.532;6.770;2022-12-07T03:57:43;23.52;;;15.52;;
21326;SDS011;10822;51.532;6.770;2022-12-07T04:00:11;22.35;;;15.30;;
21326;SDS011;10822;51.532;6.770;2022-12-07T04:02:38;29.73;;;16.63;;
21326;SDS011;10822;51.532;6.770;2022-12-07T04:05:04;40.65;;;23.45;;
21326;SDS011;10822;51.532;6.770;2022-12-07T04:07:30;39.60;;;21.85;;
21326;SDS011;10822;51.532;6.770;2022-12-07T04:09:56;27.02;;;16.77;;
21326;SDS011;10822;51.532;6.770;2022-12-07T04:12:22;33.65;;;19.30;;
21326;SDS011;10822;51.532;6.770;2022-12-07T04:14:48;22.65;;;15.45;;
21326;SDS011;10822;51.532;6.770;2022-12-07T04:17:14;23.17;;;14.70;;
21326;SDS011;10822;51.532;6.770;2022-12-07T04:19:40;20.83;;;13.82;;
21326;SDS011;10822;51.532;6.770;2022-12-07T04:22:06;22.98;;;13.25;;
21326;SDS011;10822;51.532;6.770;2022-12-07T04:24:33;21.80;;;13.10;;
21326;SDS011;10822;51.532;6.770;2022-12-07T04:26:59;19.80;;;13.20;;
21326;SDS011;10822;51.532;6.770;2022-12-07T04:29:25;22.02;;;13.90;;
21326;SDS011;10822;51.532;6.770;2022-12-07T04:31:51;21.30;;;13.52;;
21326;SDS011;10822;51.532;6.770;2022-12-07T04:34:17;21.67;;;12.85;;
21326;SDS011;10822;51.532;6.770;2022-12-07T04:36:44;18.67;;;14.10;;
21326;SDS011;10822;51.532;6.770;2022-12-07T04:39:17;20.13;;;13.05;;
21326;SDS011;10822;51.532;6.770;2022-12-07T04:41:43;19.90;;;13.20;;
21326;SDS011;10822;51.532;6.770;2022-12-07T04:44:09;18.48;;;13.02;;
21326;SDS011;10822;51.532;6.770;2022-12-07T04:46:35;22.05;;;13.55;;
21326;SDS011;10822;51.532;6.770;2022-12-07T04:49:01;18.65;;;13.10;;
21326;SDS011;10822;51.532;6.770;2022-12-07T04:51:28;21.38;;;13.77;;
21326;SDS011;10822;51.532;6.770;2022-12-07T04:53:54;21.23;;;13.38;;
21326;SDS011;10822;51.532;6.770;2022-12-07T04:56:21;22.33;;;13.75;;
21326;SDS011;10822;51.532;6.770;2022-12-07T04:58:47;20.27;;;14.20;;
21326;SDS011;10822;51.532;6.770;2022-12-07T05:01:16;23.40;;;13.68;;
21326;SDS011;10822;51.532;6.770;2022-12-07T05:03:42;20.58;;;13.63;;
21326;SDS011;10822;51.532;6.770;2022-12-07T05:06:09;20.02;;;13.25;;
21326;SDS011;10822;51.532;6.770;2022-12-07T05:08:35;21.08;;;13.75;;
21326;SDS011;10822;51.532;6.770;2022-12-07T05:11:02;20.02;;;13.75;;
21326;SDS011;10822;51.532;6.770;2022-12-07T05:13:28;20.77;;;12.98;;
21326;SDS011;10822;51.532;6.770;2022-12-07T05:15:54;21.52;;;14.65;;
21326;SDS011;10822;51.532;6.770;2022-12-07T05:20:47;24.38;;;14.38;;
21326;SDS011;10822;51.532;6.770;2022-12-07T05:23:13;19.92;;;13.43;;
21326;SDS011;10822;51.532;6.770;2022-12-07T05:25:39;22.88;;;13.90;;
21326;SDS011;10822;51.532;6.770;2022-12-07T05:28:05;24.98;;;14.15;;
21326;SDS011;10822;51.532;6.770;2022-12-07T05:30:31;24.90;;;15.00;;
21326;SDS011;10822;51.532;6.770;2022-12-07T05:32:57;25.70;;;15.93;;
21326;SDS011;10822;51.532;6.770;2022-12-07T05:35:23;27.33;;;17.50;;
21326;SDS011;10822;51.532;6.770;2022-12-07T05:37:49;23.65;;;15.38;;
21326;SDS011;10822;51.532;6.770;2022-12-07T05:40:15;22.10;;;13.68;;
21326;SDS011;10822;51.532;6.770;2022-12-07T05:42:42;21.77;;;13.80;;
21326;SDS011;10822;51.532;6.770;2022-12-07T05:45:08;26.02;;;15.45;;
21326;SDS011;10822;51.532;6.770;2022-12-07T05:47:34;18.90;;;13.30;;
21326;SDS011;10822;51.532;6.770;2022-12-07T05:50:01;24.27;;;14.63;;
21326;SDS011;10822;51.532;6.770;2022-12-07T05:52:27;23.40;;;13.98;;
21326;SDS011;10822;51.532;6.770;2022-12-07T05:54:53;24.27;;;13.80;;
21326;SDS011;10822;51.532;6.770;2022-12-07T05:57:19;26.05;;;13.30;;
21326;SDS011;10822;51.532;6.770;2022-12-07T05:59:45;21.50;;;12.90;;
21326;SDS011;10822;51.532;6.770;2022-12-07T06:02:14;22.65;;;13.77;;
21326;SDS011;10822;51.532;6.770;2022-12-07T06:04:44;23.48;;;11.98;;
21326;SDS011;10822;51.532;6.770;2022-12-07T06:07:11;20.90;;;12.65;;
21326;SDS011;10822;51.532;6.770;2022-12-07T06:09:37;19.63;;;11.95;;
21326;SDS011;10822;51.532;6.770;2022-12-07T06:12:03;19.73;;;12.52;;
21326;SDS011;10822;51.532;6.770;2022-12-07T06:14:48;21.48;;;13.07;;
21326;SDS011;10822;51.532;6.770;2022-12-07T06:17:14;21.00;;;12.43;;
21326;SDS011;10822;51.532;6.770;2022-12-07T06:19:40;16.48;;;12.05;;
21326;SDS011;10822;51.532;6.770;2022-12-07T06:22:06;20.63;;;11.05;;
21326;SDS011;10822;51.532;6.770;2022-12-07T06:24:34;15.05;;;10.65;;
21326;SDS011;10822;51.532;6.770;2022-12-07T06:27:00;26.08;;;13.45;;
21326;SDS011;10822;51.532;6.770;2022-12-07T06:29:26;32.28;;;14.75;;
21326;SDS011;10822;51.532;6.770;2022-12-07T06:31:51;30.13;;;13.93;;
21326;SDS011;10822;51.532;6.770;2022-12-07T06:34:19;26.48;;;13.00;;
21326;SDS011;10822;51.532;6.770;2022-12-07T06:36:45;24.65;;;12.82;;
21326;SDS011;10822;51.532;6.770;2022-12-07T06:39:16;24.92;;;12.30;;
21326;SDS011;10822;51.532;6.770;2022-12-07T06:41:42;17.58;;;11.00;;
21326;SDS011;10822;51.532;6.770;2022-12-07T06:44:08;16.25;;;10.55;;
21326;SDS011;10822;51.532;6.770;2022-12-07T06:46:34;18.20;;;10.57;;
21326;SDS011;10822;51.532;6.770;2022-12-07T06:49:03;20.70;;;11.30;;
21326;SDS011;10822;51.532;6.770;2022-12-07T06:51:30;19.45;;;11.75;;
21326;SDS011;10822;51.532;6.770;2022-12-07T06:53:56;16.98;;;11.40;;
21326;SDS011;10822;51.532;6.770;2022-12-07T06:56:22;19.52;;;11.32;;
21326;SDS011;10822;51.532;6.770;2022-12-07T06:58:48;15.93;;;10.70;;
21326;SDS011;10822;51.532;6.770;2022-12-07T07:01:16;22.63;;;11.90;;
21326;SDS011;10822;51.532;6.770;2022-12-07T07:03:42;19.67;;;11.73;;
21326;SDS011;10822;51.532;6.770;2022-12-07T07:06:09;18.88;;;11.45;;
21326;SDS011;10822;51.532;6.770;2022-12-07T07:08:35;17.27;;;10.73;;
21326;SDS011;10822;51.532;6.770;2022-12-07T07:11:02;20.40;;;10.05;;
21326;SDS011;10822;51.532;6.770;2022-12-07T07:13:28;16.90;;;9.40;;
21326;SDS011;10822;51.532;6.770;2022-12-07T07:15:54;17.15;;;10.25;;
21326;SDS011;10822;51.532;6.770;2022-12-07T07:18:20;18.30;;;10.10;;
21326;SDS011;10822;51.532;6.770;2022-12-07T07:20:46;17.00;;;9.43;;
21326;SDS011;10822;51.532;6.770;2022-12-07T07:23:12;19.52;;;10.18;;
21326;SDS011;10822;51.532;6.770;2022-12-07T07:25:38;18.83;;;9.73;;
21326;SDS011;10822;51.532;6.770;2022-12-07T07:28:04;18.15;;;9.65;;
21326;SDS011;10822;51.532;6.770;2022-12-07T07:30:30;15.60;;;9.23;;
21326;SDS011;10822;51.532;6.770;2022-12-07T07:33:00;16.60;;;9.43;;
21326;SDS011;10822;51.532;6.770;2022-12-07T07:35:26;16.88;;;9.38;;
21326;SDS011;10822;51.532;6.770;2022-12-07T07:37:53;17.98;;;9.68;;
21326;SDS011;10822;51.532;6.770;2022-12-07T07:40:19;15.73;;;9.60;;
21326;SDS011;10822;51.532;6.770;2022-12-07T07:42:52;13.98;;;8.82;;
21326;SDS011;10822;51.532;6.770;2022-12-07T07:45:18;15.15;;;9.20;;
21326;SDS011;10822;51.532;6.770;2022-12-07T07:47:45;19.02;;;9.60;;
21326;SDS011;10822;51.532;6.770;2022-12-07T07:50:11;18.10;;;9.85;;
21326;SDS011;10822;51.532;6.770;2022-12-07T07:52:37;18.52;;;11.65;;
21326;SDS011;10822;51.532;6.770;2022-12-07T07:55:03;17.38;;;10.70;;
21326;SDS011;10822;51.532;6.770;2022-12-07T07:57:29;21.35;;;12.60;;
21326;SDS011;10822;51.532;6.770;2022-12-07T07:59:55;16.45;;;9.60;;
21326;SDS011;10822;51.532;6.770;2022-12-07T08:02:21;18.63;;;9.63;;
21326;SDS011;10822;51.532;6.770;2022-12-07T08:04:47;14.55;;;8.82;;
21326;SDS011;10822;51.532;6.770;2022-12-07T08:07:14;15.57;;;8.60;;
21326;SDS011;10822;51.532;6.770;2022-12-07T08:09:40;16.50;;;9.25;;
21326;SDS011;10822;51.532;6.770;2022-12-07T08:12:06;13.13;;;8.77;;
21326;SDS011;10822;51.532;6.770;2022-12-07T08:14:33;14.15;;;8.90;;
21326;SDS011;10822;51.532;6.770;2022-12-07T08:16:59;15.20;;;8.52;;
21326;SDS011;10822;51.532;6.770;2022-12-07T08:19:25;18.60;;;7.90;;
21326;SDS011;10822;51.532;6.770;2022-12-07T08:21:51;16.45;;;8.65;;
21326;SDS011;10822;51.532;6.770;2022-12-07T08:24:17;12.73;;;8.13;;
21326;SDS011;10822;51.532;6.770;2022-12-07T08:26:43;15.93;;;8.30;;
21326;SDS011;10822;51.532;6.770;2022-12-07T08:29:09;15.20;;;8.00;;
21326;SDS011;10822;51.532;6.770;2022-12-07T08:31:35;17.98;;;7.43;;
21326;SDS011;10822;51.532;6.770;2022-12-07T08:34:01;10.57;;;7.40;;
21326;SDS011;10822;51.532;6.770;2022-12-07T08:36:27;15.98;;;7.78;;
21326;SDS011;10822;51.532;6.770;2022-12-07T08:38:53;19.13;;;7.80;;
21326;SDS011;10822;51.532;6.770;2022-12-07T08:41:19;11.57;;;7.07;;
21326;SDS011;10822;51.532;6.770;2022-12-07T08:43:45;16.63;;;8.25;;
21326;SDS011;10822;51.532;6.770;2022-12-07T08:48:39;15.05;;;8.68;;
21326;SDS011;10822;51.532;6.770;2022-12-07T08:51:06;15.00;;;8.35;;
21326;SDS011;10822;51.532;6.770;2022-12-07T08:53:32;13.48;;;8.38;;
21326;SDS011;10822;51.532;6.770;2022-12-07T08:55:59;19.30;;;9.23;;
21326;SDS011;10822;51.532;6.770;2022-12-07T08:58:25;17.45;;;9.18;;
21326;SDS011;10822;51.532;6.770;2022-12-07T09:00:52;12.63;;;7.55;;
21326;SDS011;10822;51.532;6.770;2022-12-07T09:03:18;12.07;;;7.45;;
21326;SDS011;10822;51.532;6.770;2022-12-07T09:05:44;14.32;;;7.70;;
21326;SDS011;10822;51.532;6.770;2022-12-07T09:08:10;13.13;;;7.57;;
21326;SDS011;10822;51.532;6.770;2022-12-07T09:10:36;12.65;;;7.93;;
21326;SDS011;10822;51.532;6.770;2022-12-07T09:13:02;15.40;;;8.05;;
21326;SDS011;10822;51.532;6.770;2022-12-07T09:15:28;14.02;;;8.05;;
21326;SDS011;10822;51.532;6.770;2022-12-07T09:17:54;15.40;;;7.85;;
21326;SDS011;10822;51.532;6.770;2022-12-07T09:20:20;16.75;;;8.85;;
21326;SDS011;10822;51.532;6.770;2022-12-07T09:22:46;19.85;;;9.52;;
21326;SDS011;10822;51.532;6.770;2022-12-07T09:25:13;16.60;;;8.15;;
21326;SDS011;10822;51.532;6.770;2022-12-07T09:27:38;14.68;;;7.90;;
21326;SDS011;10822;51.532;6.770;2022-12-07T09:30:05;11.75;;;6.78;;
21326;SDS011;10822;51.532;6.770;2022-12-07T09:32:31;14.07;;;7.20;;
21326;SDS011;10822;51.532;6.770;2022-12-07T09:34:57;15.15;;;7.70;;
21326;SDS011;10822;51.532;6.770;2022-12-07T09:37:23;14.32;;;7.88;;
21326;SDS011;10822;51.532;6.770;2022-12-07T09:39:49;14.43;;;6.60;;
21326;SDS011;10822;51.532;6.770;2022-12-07T09:45:32;12.82;;;7.25;;
21326;SDS011;10822;51.532;6.770;2022-12-07T09:47:57;11.10;;;6.50;;
21326;SDS011;10822;51.532;6.770;2022-12-07T09:50:24;9.73;;;6.07;;
21326;SDS011;10822;51.532;6.770;2022-12-07T09:52:51;12.35;;;6.28;;
21326;SDS011;10822;51.532;6.770;2022-12-07T09:55:25;10.13;;;6.38;;
21326;SDS011;10822;51.532;6.770;2022-12-07T09:57:53;12.48;;;6.05;;
21326;SDS011;10822;51.532;6.770;2022-12-07T10:00:20;13.05;;;6.35;;
21326;SDS011;10822;51.532;6.770;2022-12-07T10:05:20;13.05;;;6.13;;
21326;SDS011;10822;51.532;6.770;2022-12-07T10:07:47;10.68;;;5.88;;
21326;SDS011;10822;51.532;6.770;2022-12-07T10:10:15;10.00;;;5.82;;
21326;SDS011;10822;51.532;6.770;2022-12-07T10:12:59;11.38;;;6.43;;
21326;SDS011;10822;51.532;6.770;2022-12-07T10:18:16;9.88;;;7.00;;
21326;SDS011;10822;51.532;6.770;2022-12-07T10:20:44;12.43;;;7.32;;
21326;SDS011;10822;51.532;6.770;2022-12-07T10:23:15;11.35;;;6.22;;
21326;SDS011;10822;51.532;6.770;2022-12-07T10:25:41;12.27;;;6.10;;
21326;SDS011;10822;51.532;6.770;2022-12-07T10:30:34;9.80;;;6.78;;
21326;SDS011;10822;51.532;6.770;2022-12-07T10:35:56;16.23;;;7.90;;
21326;SDS011;10822;51.532;6.770;2022-12-07T10:38:22;11.80;;;5.75;;
21326;SDS011;10822;51.532;6.770;2022-12-07T10:40:53;14.60;;;5.82;;
21326;SDS011;10822;51.532;6.770;2022-12-07T10:43:28;9.00;;;4.90;;
21326;SDS011;10822;51.532;6.770;2022-12-07T10:45:59;7.22;;;3.97;;
21326;SDS011;10822;51.532;6.770;2022-12-07T10:48:34;6.25;;;4.15;;
21326;SDS011;10822;51.532;6.770;2022-12-07T10:51:49;11.30;;;4.97;;
21326;SDS011;10822;51.532;6.770;2022-12-07T10:54:00;8.35;;;4.13;;
21326;SDS011;10822;51.532;6.770;2022-12-07T11:01:44;9.65;;;4.25;;
21326;SDS011;10822;51.532;6.770;2022-12-07T11:07:01;9.05;;;3.65;;
21326;SDS011;10822;51.532;6.770;2022-12-07T11:17:02;9.95;;;3.97;;
21326;SDS011;10822;51.532;6.770;2022-12-07T11:19:49;7.40;;;3.75;;
21326;SDS011;10822;51.532;6.770;2022-12-07T11:24:59;6.85;;;3.50;;
21326;SDS011;10822;51.532;6.770;2022-12-07T11:27:32;7.25;;;3.40;;
21326;SDS011;10822;51.532;6.770;2022-12-07T11:33:04;6.00;;;2.97;;
21326;SDS011;10822;51.532;6.770;2022-12-07T11:35:38;4.88;;;2.40;;
21326;SDS011;10822;51.532;6.770;2022-12-07T11:38:11;5.93;;;2.72;;
21326;SDS011;10822;51.532;6.770;2022-12-07T11:40:37;4.95;;;2.78;;
21326;SDS011;10822;51.532;6.770;2022-12-07T11:45:33;5.35;;;2.67;;
21326;SDS011;10822;51.532;6.770;2022-12-07T11:48:01;7.25;;;3.30;;
21326;SDS011;10822;51.532;6.770;2022-12-07T11:55:41;6.53;;;2.95;;
21326;SDS011;10822;51.532;6.770;2022-12-07T11:58:35;9.43;;;3.92;;
21326;SDS011;10822;51.532;6.770;2022-12-07T12:03:40;5.32;;;2.60;;
21326;SDS011;10822;51.532;6.770;2022-12-07T12:06:07;8.13;;;4.38;;
21326;SDS011;10822;51.532;6.770;2022-12-07T12:08:35;11.15;;;6.30;;
21326;SDS011;10822;51.532;6.770;2022-12-07T12:11:52;6.63;;;2.88;;
21326;SDS011;10822;51.532;6.770;2022-12-07T12:16:37;8.20;;;4.13;;
21326;SDS011;10822;51.532;6.770;2022-12-07T12:21:30;6.90;;;3.47;;
21326;SDS011;10822;51.532;6.770;2022-12-07T12:24:14;12.68;;;3.30;;
21326;SDS011;10822;51.532;6.770;2022-12-07T12:26:48;15.48;;;5.72;;
21326;SDS011;10822;51.532;6.770;2022-12-07T12:29:34;13.30;;;5.10;;
21326;SDS011;10822;51.532;6.770;2022-12-07T12:32:15;11.90;;;4.32;;
21326;SDS011;10822;51.532;6.770;2022-12-07T12:42:46;10.45;;;4.20;;
21326;SDS011;10822;51.532;6.770;2022-12-07T12:45:20;10.90;;;4.68;;
21326;SDS011;10822;51.532;6.770;2022-12-07T12:48:00;6.63;;;3.80;;
21326;SDS011;10822;51.532;6.770;2022-12-07T12:50:30;14.52;;;5.70;;
21326;SDS011;10822;51.532;6.770;2022-12-07T12:53:01;6.07;;;3.63;;
21326;SDS011;10822;51.532;6.770;2022-12-07T12:55:44;10.68;;;4.38;;
21326;SDS011;10822;51.532;6.770;2022-12-07T13:00:47;24.80;;;9.50;;
21326;SDS011;10822;51.532;6.770;2022-12-07T13:03:26;28.55;;;9.70;;
21326;SDS011;10822;51.532;6.770;2022-12-07T13:08:54;14.02;;;5.70;;
21326;SDS011;10822;51.532;6.770;2022-12-07T13:11:35;19.45;;;7.88;;
21326;SDS011;10822;51.532;6.770;2022-12-07T13:16:48;13.00;;;5.65;;
21326;SDS011;10822;51.532;6.770;2022-12-07T13:21:58;8.00;;;4.47;;
21326;SDS011;10822;51.532;6.770;2022-12-07T13:24:24;16.38;;;8.70;;
21326;SDS011;10822;51.532;6.770;2022-12-07T13:26:51;9.25;;;4.43;;
21326;SDS011;10822;51.532;6.770;2022-12-07T13:29:21;15.95;;;6.80;;
21326;SDS011;10822;51.532;6.770;2022-12-07T13:37:19;8.57;;;4.60;;
21326;SDS011;10822;51.532;6.770;2022-12-07T13:39:57;4.25;;;2.85;;
21326;SDS011;10822;51.532;6.770;2022-12-07T13:42:27;8.25;;;2.95;;
21326;SDS011;10822;51.532;6.770;2022-12-07T13:44:53;8.05;;;3.67;;
21326;SDS011;10822;51.532;6.770;2022-12-07T13:47:28;9.13;;;4.03;;
21326;SDS011;10822;51.532;6.770;2022-12-07T13:49:57;8.18;;;3.88;;
21326;SDS011;10822;51.532;6.770;2022-12-07T13:52:24;7.28;;;3.90;;
21326;SDS011;10822;51.532;6.770;2022-12-07T13:57:23;9.75;;;3.85;;
21326;SDS011;10822;51.532;6.770;2022-12-07T13:59:50;5.70;;;3.08;;
21326;SDS011;10822;51.532;6.770;2022-12-07T14:02:20;6.10;;;2.55;;
21326;SDS011;10822;51.532;6.770;2022-12-07T14:04:47;6.35;;;3.40;;
21326;SDS011;10822;51.532;6.770;2022-12-07T14:07:21;6.93;;;2.67;;
21326;SDS011;10822;51.532;6.770;2022-12-07T14:09:58;8.23;;;3.22;;
21326;SDS011;10822;51.532;6.770;2022-12-07T14:12:25;5.85;;;2.30;;
21326;SDS011;10822;51.532;6.770;2022-12-07T14:14:52;4.25;;;1.90;;
21326;SDS011;10822;51.532;6.770;2022-12-07T14:17:19;7.55;;;2.50;;
21326;SDS011;10822;51.532;6.770;2022-12-07T14:19:52;7.57;;;2.72;;
21326;SDS011;10822;51.532;6.770;2022-12-07T14:24:45;6.97;;;2.30;;
21326;SDS011;10822;51.532;6.770;2022-12-07T14:27:16;5.03;;;2.10;;
21326;SDS011;10822;51.532;6.770;2022-12-07T14:29:42;7.25;;;3.13;;
21326;SDS011;10822;51.532;6.770;2022-12-07T14:32:28;5.03;;;2.42;;
21326;SDS011;10822;51.532;6.770;2022-12-07T14:34:55;6.45;;;2.28;;
21326;SDS011;10822;51.532;6.770;2022-12-07T14:37:21;5.75;;;2.17;;
21326;SDS011;10822;51.532;6.770;2022-12-07T14:39:47;5.97;;;2.72;;
21326;SDS011;10822;51.532;6.770;2022-12-07T14:42:13;8.48;;;2.42;;
21326;SDS011;10822;51.532;6.770;2022-12-07T14:44:39;5.68;;;1.80;;
21326;SDS011;10822;51.532;6.770;2022-12-07T14:47:05;8.15;;;2.13;;
21326;SDS011;10822;51.532;6.770;2022-12-07T14:49:31;6.70;;;2.78;;
21326;SDS011;10822;51.532;6.770;2022-12-07T14:51:56;4.13;;;2.42;;
21326;SDS011;10822;51.532;6.770;2022-12-07T14:54:24;5.15;;;2.60;;
21326;SDS011;10822;51.532;6.770;2022-12-07T14:56:53;6.35;;;2.50;;
21326;SDS011;10822;51.532;6.770;2022-12-07T14:59:19;7.35;;;2.45;;
21326;SDS011;10822;51.532;6.770;2022-12-07T15:01:45;8.02;;;2.58;;
21326;SDS011;10822;51.532;6.770;2022-12-07T15:04:11;11.75;;;3.38;;
21326;SDS011;10822;51.532;6.770;2022-12-07T15:06:37;10.00;;;4.40;;
21326;SDS011;10822;51.532;6.770;2022-12-07T15:09:03;10.40;;;4.38;;
21326;SDS011;10822;51.532;6.770;2022-12-07T15:11:29;8.88;;;3.65;;
21326;SDS011;10822;51.532;6.770;2022-12-07T15:13:55;7.18;;;2.95;;
21326;SDS011;10822;51.532;6.770;2022-12-07T15:16:35;12.30;;;4.57;;
21326;SDS011;10822;51.532;6.770;2022-12-07T15:19:01;11.35;;;6.18;;
21326;SDS011;10822;51.532;6.770;2022-12-07T15:21:27;12.27;;;6.07;;
21326;SDS011;10822;51.532;6.770;2022-12-07T15:23:53;11.90;;;5.35;;
21326;SDS011;10822;51.532;6.770;2022-12-07T15:26:19;10.65;;;4.57;;
21326;SDS011;10822;51.532;6.770;2022-12-07T15:28:45;11.30;;;4.35;;
21326;SDS011;10822;51.532;6.770;2022-12-07T15:31:15;9.57;;;3.80;;
21326;SDS011;10822;51.532;6.770;2022-12-07T15:33:41;13.27;;;3.80;;
21326;SDS011;10822;51.532;6.770;2022-12-07T15:36:08;10.45;;;4.18;;
21326;SDS011;10822;51.532;6.770;2022-12-07T15:38:35;7.47;;;3.88;;
21326;SDS011;10822;51.532;6.770;2022-12-07T15:41:01;12.50;;;4.53;;
21326;SDS011;10822;51.532;6.770;2022-12-07T15:43:27;9.70;;;4.90;;
21326;SDS011;10822;51.532;6.770;2022-12-07T15:46:11;12.60;;;5.53;;
21326;SDS011;10822;51.532;6.770;2022-12-07T15:48:39;9.38;;;4.15;;
21326;SDS011;10822;51.532;6.770;2022-12-07T15:51:08;13.05;;;4.30;;
21326;SDS011;10822;51.532;6.770;2022-12-07T15:53:34;8.23;;;4.18;;
21326;SDS011;10822;51.532;6.770;2022-12-07T15:56:01;8.75;;;4.40;;
21326;SDS011;10822;51.532;6.770;2022-12-07T15:58:30;8.20;;;3.72;;
21326;SDS011;10822;51.532;6.770;2022-12-07T16:00:56;7.72;;;3.40;;
21326;SDS011;10822;51.532;6.770;2022-12-07T16:03:22;5.78;;;3.17;;
21326;SDS011;10822;51.532;6.770;2022-12-07T16:05:49;6.32;;;3.60;;
21326;SDS011;10822;51.532;6.770;2022-12-07T16:08:15;7.10;;;3.60;;
21326;SDS011;10822;51.532;6.770;2022-12-07T16:10:41;6.32;;;3.28;;
21326;SDS011;10822;51.532;6.770;2022-12-07T16:13:08;7.40;;;3.20;;
21326;SDS011;10822;51.532;6.770;2022-12-07T16:15:37;6.78;;;3.22;;
21326;SDS011;10822;51.532;6.770;2022-12-07T16:18:03;10.15;;;4.10;;
21326;SDS011;10822;51.532;6.770;2022-12-07T16:20:29;7.63;;;3.88;;
21326;SDS011;10822;51.532;6.770;2022-12-07T16:22:55;8.35;;;3.70;;
21326;SDS011;10822;51.532;6.770;2022-12-07T16:25:21;6.35;;;3.47;;
21326;SDS011;10822;51.532;6.770;2022-12-07T16:27:47;10.63;;;3.58;;
21326;SDS011;10822;51.532;6.770;2022-12-07T16:30:14;8.25;;;3.70;;
21326;SDS011;10822;51.532;6.770;2022-12-07T16:32:41;7.22;;;3.20;;
21326;SDS011;10822;51.532;6.770;2022-12-07T16:35:07;10.38;;;3.45;;